FFL693 KJAX-KORL
Flight info
| Callsign | FFL693 |
|---|---|
| Flight time | 0h 39m |
| Altitude | 17000 |
| Route | SGJ/N0284F160 |
| Aircraft | PC12/L-SDFGRWY/S |
Departure
| Time | 2026-04-26 16:40 |
|---|---|
| Airport | Jacksonville International Airport (KJAX) |
Arrival
| Time | 2026-04-26 17:19 |
|---|---|
| Airport | Orlando Executive Airport (KORL) |
| Time | Latitude | Longitude | Altitude | Speed | Heading |
|---|---|---|---|---|---|
| 2026-04-26 16:26 | 30.49736 | -81.68206 | 32 ft | 0 kts | 71° |
| 2026-04-26 16:33 | 30.49737 | -81.68205 | 32 ft | 2 kts | 71° |
| 2026-04-26 16:33 | 30.49785 | -81.68186 | 32 ft | 13 kts | 355° |
| 2026-04-26 16:33 | 30.49840 | -81.68154 | 32 ft | 11 kts | 67° |
| 2026-04-26 16:33 | 30.49850 | -81.68121 | 33 ft | 8 kts | 72° |
| 2026-04-26 16:34 | 30.49863 | -81.68024 | 33 ft | 7 kts | 101° |
| 2026-04-26 16:34 | 30.49851 | -81.67947 | 32 ft | 14 kts | 85° |
| 2026-04-26 16:34 | 30.49944 | -81.67944 | 32 ft | 18 kts | 344° |
| 2026-04-26 16:34 | 30.50038 | -81.67837 | 33 ft | 24 kts | 72° |
| 2026-04-26 16:35 | 30.50082 | -81.67680 | 31 ft | 20 kts | 71° |
| 2026-04-26 16:35 | 30.50142 | -81.67488 | 30 ft | 21 kts | 70° |
| 2026-04-26 16:35 | 30.50161 | -81.67424 | 30 ft | 8 kts | 70° |
| 2026-04-26 16:35 | 30.50204 | -81.67308 | 29 ft | 23 kts | 58° |
| 2026-04-26 16:36 | 30.50251 | -81.67129 | 29 ft | 20 kts | 67° |
| 2026-04-26 16:36 | 30.50297 | -81.66979 | 30 ft | 16 kts | 70° |
| 2026-04-26 16:36 | 30.50365 | -81.66946 | 30 ft | 12 kts | 341° |
| 2026-04-26 16:36 | 30.50447 | -81.66979 | 30 ft | 6 kts | 341° |
| 2026-04-26 16:37 | 30.50448 | -81.66980 | 30 ft | 0 kts | 341° |
| 2026-04-26 16:38 | 30.50463 | -81.66986 | 30 ft | 9 kts | 340° |
| 2026-04-26 16:38 | 30.50519 | -81.67009 | 30 ft | 6 kts | 339° |
| 2026-04-26 16:39 | 30.50526 | -81.67053 | 29 ft | 0 kts | 253° |
| 2026-04-26 16:39 | 30.50524 | -81.67058 | 29 ft | 5 kts | 253° |
| 2026-04-26 16:39 | 30.50445 | -81.67326 | 27 ft | 67 kts | 250° |
| 2026-04-26 16:39 | 30.50238 | -81.68017 | 55 ft | 109 kts | 252° |
| 2026-04-26 16:40 | 30.49915 | -81.68977 | 200 ft | 147 kts | 252° |
| 2026-04-26 16:40 | 30.49565 | -81.70113 | 791 ft | 149 kts | 252° |
| 2026-04-26 16:40 | 30.49246 | -81.71234 | 1510 ft | 145 kts | 253° |
| 2026-04-26 16:40 | 30.48956 | -81.72355 | 2276 ft | 146 kts | 253° |
| 2026-04-26 16:41 | 30.48650 | -81.73529 | 2807 ft | 160 kts | 253° |
| 2026-04-26 16:41 | 30.48310 | -81.74839 | 3006 ft | 185 kts | 253° |
| 2026-04-26 16:41 | 30.47913 | -81.76353 | 3013 ft | 205 kts | 253° |
| 2026-04-26 16:41 | 30.47493 | -81.77953 | 3013 ft | 209 kts | 253° |
| 2026-04-26 16:42 | 30.47068 | -81.79567 | 3009 ft | 209 kts | 252° |
| 2026-04-26 16:42 | 30.46288 | -81.80896 | 3415 ft | 195 kts | 216° |
| 2026-04-26 16:42 | 30.45084 | -81.81387 | 4276 ft | 177 kts | 191° |
| 2026-04-26 16:42 | 30.43846 | -81.81299 | 4862 ft | 186 kts | 168° |
| 2026-04-26 16:43 | 30.42639 | -81.80538 | 5011 ft | 212 kts | 142° |
| 2026-04-26 16:43 | 30.41522 | -81.79318 | 5024 ft | 228 kts | 138° |
| 2026-04-26 16:43 | 30.40335 | -81.78046 | 5019 ft | 236 kts | 141° |
| 2026-04-26 16:43 | 30.39093 | -81.76795 | 5018 ft | 236 kts | 141° |
| 2026-04-26 16:44 | 30.37856 | -81.75553 | 5017 ft | 235 kts | 141° |
| 2026-04-26 16:44 | 30.36625 | -81.74306 | 5026 ft | 235 kts | 141° |
| 2026-04-26 16:44 | 30.35398 | -81.73058 | 5027 ft | 234 kts | 141° |
| 2026-04-26 16:44 | 30.34172 | -81.71815 | 5026 ft | 234 kts | 141° |
| 2026-04-26 16:45 | 30.32946 | -81.70575 | 5015 ft | 234 kts | 141° |
| 2026-04-26 16:45 | 30.31767 | -81.69380 | 5525 ft | 214 kts | 141° |
| 2026-04-26 16:45 | 30.30719 | -81.68311 | 6435 ft | 188 kts | 141° |
| 2026-04-26 16:45 | 30.29796 | -81.67374 | 7434 ft | 169 kts | 141° |
| 2026-04-26 16:46 | 30.28899 | -81.66467 | 8225 ft | 173 kts | 142° |
| 2026-04-26 16:46 | 30.27984 | -81.65548 | 8987 ft | 177 kts | 142° |
| 2026-04-26 16:46 | 30.27042 | -81.64596 | 9622 ft | 181 kts | 141° |
| 2026-04-26 16:46 | 30.26090 | -81.63631 | 10212 ft | 183 kts | 141° |
| 2026-04-26 16:47 | 30.25123 | -81.62655 | 10784 ft | 185 kts | 141° |
| 2026-04-26 16:47 | 30.24146 | -81.61668 | 11355 ft | 188 kts | 141° |
| 2026-04-26 16:47 | 30.23158 | -81.60669 | 11915 ft | 190 kts | 141° |
| 2026-04-26 16:47 | 30.22156 | -81.59657 | 12458 ft | 193 kts | 141° |
| 2026-04-26 16:48 | 30.21139 | -81.58632 | 13011 ft | 195 kts | 141° |
| 2026-04-26 16:48 | 30.20112 | -81.57595 | 13551 ft | 197 kts | 141° |
| 2026-04-26 16:48 | 30.19070 | -81.56543 | 14040 ft | 200 kts | 141° |
| 2026-04-26 16:48 | 30.18016 | -81.55480 | 14507 ft | 202 kts | 141° |
| 2026-04-26 16:49 | 30.16951 | -81.54407 | 14977 ft | 204 kts | 141° |
| 2026-04-26 16:49 | 30.15876 | -81.53323 | 15451 ft | 206 kts | 141° |
| 2026-04-26 16:49 | 30.14793 | -81.52231 | 15928 ft | 208 kts | 141° |
| 2026-04-26 16:49 | 30.13696 | -81.51127 | 16415 ft | 210 kts | 141° |
| 2026-04-26 16:50 | 30.12588 | -81.50010 | 16864 ft | 215 kts | 141° |
| 2026-04-26 16:50 | 30.11457 | -81.48873 | 17367 ft | 214 kts | 141° |
| 2026-04-26 16:50 | 30.10332 | -81.47739 | 17849 ft | 217 kts | 141° |
| 2026-04-26 16:50 | 30.09152 | -81.46555 | 18013 ft | 235 kts | 141° |
| 2026-04-26 16:51 | 30.07871 | -81.45273 | 18025 ft | 252 kts | 141° |
| 2026-04-26 16:51 | 30.06540 | -81.43934 | 18029 ft | 262 kts | 141° |
| 2026-04-26 16:51 | 30.05150 | -81.42534 | 18033 ft | 269 kts | 141° |
| 2026-04-26 16:51 | 30.03726 | -81.41103 | 18031 ft | 273 kts | 141° |
| 2026-04-26 16:52 | 30.02287 | -81.39658 | 18025 ft | 275 kts | 141° |
| 2026-04-26 16:52 | 30.01310 | -81.38678 | 18022 ft | 275 kts | 141° |
| 2026-04-26 16:52 | 29.99403 | -81.36763 | 18024 ft | 273 kts | 141° |
| 2026-04-26 16:52 | 29.97973 | -81.35328 | 18021 ft | 274 kts | 141° |
| 2026-04-26 16:53 | 29.96445 | -81.34014 | 18019 ft | 275 kts | 154° |
| 2026-04-26 16:53 | 29.94672 | -81.33232 | 18023 ft | 272 kts | 170° |
| 2026-04-26 16:53 | 29.92797 | -81.33019 | 18025 ft | 272 kts | 184° |
| 2026-04-26 16:53 | 29.90882 | -81.33034 | 18028 ft | 278 kts | 184° |
| 2026-04-26 16:54 | 29.88937 | -81.33038 | 18031 ft | 281 kts | 184° |
| 2026-04-26 16:54 | 29.86978 | -81.33039 | 18024 ft | 282 kts | 184° |
| 2026-04-26 16:54 | 29.85011 | -81.33041 | 18028 ft | 283 kts | 184° |
| 2026-04-26 16:54 | 29.83045 | -81.33046 | 18026 ft | 283 kts | 184° |
| 2026-04-26 16:55 | 29.81077 | -81.33050 | 18024 ft | 283 kts | 184° |
| 2026-04-26 16:55 | 29.79107 | -81.33054 | 18018 ft | 283 kts | 184° |
| 2026-04-26 16:55 | 29.77135 | -81.33057 | 18015 ft | 283 kts | 184° |
| 2026-04-26 16:55 | 29.75158 | -81.33061 | 18005 ft | 284 kts | 184° |
| 2026-04-26 16:56 | 29.71210 | -81.33069 | 18003 ft | 284 kts | 184° |
| 2026-04-26 16:56 | 29.69237 | -81.33073 | 17998 ft | 284 kts | 184° |
| 2026-04-26 16:56 | 29.67262 | -81.33077 | 18003 ft | 284 kts | 184° |
| 2026-04-26 16:57 | 29.65286 | -81.33080 | 18007 ft | 284 kts | 184° |
| 2026-04-26 16:57 | 29.63311 | -81.33084 | 18009 ft | 284 kts | 184° |
| 2026-04-26 16:57 | 29.59361 | -81.33092 | 18008 ft | 284 kts | 184° |
| 2026-04-26 16:58 | 29.57387 | -81.33096 | 18012 ft | 284 kts | 184° |
| 2026-04-26 16:58 | 29.56078 | -81.33099 | 18011 ft | 284 kts | 184° |
| 2026-04-26 16:58 | 29.51459 | -81.33108 | 18013 ft | 284 kts | 184° |
| 2026-04-26 16:59 | 29.49483 | -81.33112 | 18014 ft | 284 kts | 184° |
| 2026-04-26 16:59 | 29.45528 | -81.33118 | 18014 ft | 284 kts | 184° |
| 2026-04-26 17:00 | 29.41556 | -81.33128 | 17652 ft | 287 kts | 184° |
| 2026-04-26 17:00 | 29.37608 | -81.33134 | 16884 ft | 281 kts | 184° |
| 2026-04-26 17:00 | 29.35650 | -81.33138 | 16510 ft | 282 kts | 183° |
| 2026-04-26 17:01 | 29.33688 | -81.33143 | 16134 ft | 282 kts | 184° |
| 2026-04-26 17:01 | 29.31756 | -81.33146 | 15768 ft | 281 kts | 183° |
| 2026-04-26 17:01 | 29.29810 | -81.33149 | 15390 ft | 279 kts | 183° |
| 2026-04-26 17:01 | 29.27876 | -81.33152 | 15030 ft | 277 kts | 183° |
| 2026-04-26 17:02 | 29.25957 | -81.33157 | 14666 ft | 276 kts | 183° |
| 2026-04-26 17:02 | 29.24033 | -81.33161 | 14314 ft | 275 kts | 183° |
| 2026-04-26 17:02 | 29.22118 | -81.33165 | 13966 ft | 275 kts | 183° |
| 2026-04-26 17:02 | 29.20204 | -81.33168 | 13592 ft | 275 kts | 183° |
| 2026-04-26 17:03 | 29.18293 | -81.33172 | 13220 ft | 274 kts | 183° |
| 2026-04-26 17:03 | 29.16392 | -81.33175 | 12836 ft | 273 kts | 182° |
| 2026-04-26 17:03 | 29.14495 | -81.33179 | 12455 ft | 272 kts | 182° |
| 2026-04-26 17:03 | 29.12607 | -81.33183 | 12096 ft | 270 kts | 182° |
| 2026-04-26 17:04 | 29.10753 | -81.33185 | 11987 ft | 262 kts | 182° |
| 2026-04-26 17:04 | 29.08954 | -81.33188 | 11979 ft | 256 kts | 182° |
| 2026-04-26 17:04 | 29.07182 | -81.33191 | 11976 ft | 254 kts | 183° |
| 2026-04-26 17:04 | 29.05386 | -81.33198 | 11637 ft | 262 kts | 183° |
| 2026-04-26 17:05 | 29.03559 | -81.33043 | 11267 ft | 265 kts | 172° |
| 2026-04-26 17:05 | 29.01732 | -81.32862 | 10902 ft | 263 kts | 183° |
| 2026-04-26 17:05 | 28.99916 | -81.32968 | 10549 ft | 260 kts | 188° |
| 2026-04-26 17:05 | 28.98107 | -81.33077 | 10179 ft | 260 kts | 184° |
| 2026-04-26 17:06 | 28.96299 | -81.33032 | 9811 ft | 259 kts | 181° |
| 2026-04-26 17:06 | 28.94505 | -81.32957 | 9426 ft | 257 kts | 182° |
| 2026-04-26 17:06 | 28.92724 | -81.32920 | 9040 ft | 255 kts | 182° |
| 2026-04-26 17:06 | 28.90958 | -81.32896 | 8635 ft | 253 kts | 182° |
| 2026-04-26 17:07 | 28.89212 | -81.32744 | 8235 ft | 252 kts | 173° |
| 2026-04-26 17:07 | 28.87526 | -81.32218 | 7844 ft | 251 kts | 165° |
| 2026-04-26 17:07 | 28.85874 | -81.31585 | 7476 ft | 249 kts | 164° |
| 2026-04-26 17:07 | 28.84242 | -81.30945 | 7126 ft | 247 kts | 164° |
| 2026-04-26 17:08 | 28.82640 | -81.30314 | 6977 ft | 239 kts | 164° |
| 2026-04-26 17:08 | 28.81086 | -81.29699 | 6966 ft | 234 kts | 164° |
| 2026-04-26 17:08 | 28.79557 | -81.29092 | 6966 ft | 232 kts | 164° |
| 2026-04-26 17:08 | 28.78035 | -81.28488 | 6965 ft | 231 kts | 164° |
| 2026-04-26 17:09 | 28.76521 | -81.27885 | 6964 ft | 230 kts | 164° |
| 2026-04-26 17:09 | 28.76011 | -81.27681 | 6963 ft | 230 kts | 164° |
| 2026-04-26 17:09 | 28.73497 | -81.26678 | 6965 ft | 230 kts | 164° |
| 2026-04-26 17:09 | 28.71982 | -81.26071 | 6963 ft | 231 kts | 164° |
| 2026-04-26 17:10 | 28.70529 | -81.25306 | 6943 ft | 233 kts | 146° |
| 2026-04-26 17:10 | 28.69546 | -81.23849 | 6948 ft | 236 kts | 116° |
| 2026-04-26 17:10 | 28.69252 | -81.21983 | 6630 ft | 246 kts | 91° |
| 2026-04-26 17:10 | 28.69331 | -81.20718 | 6355 ft | 240 kts | 86° |
| 2026-04-26 17:11 | 28.69535 | -81.18849 | 5927 ft | 237 kts | 84° |
| 2026-04-26 17:11 | 28.69758 | -81.17000 | 5501 ft | 235 kts | 84° |
| 2026-04-26 17:11 | 28.69972 | -81.15161 | 5087 ft | 234 kts | 85° |
| 2026-04-26 17:11 | 28.70170 | -81.13326 | 4672 ft | 233 kts | 85° |
| 2026-04-26 17:12 | 28.70555 | -81.09699 | 3824 ft | 228 kts | 85° |
| 2026-04-26 17:12 | 28.70629 | -81.07907 | 3424 ft | 226 kts | 101° |
| 2026-04-26 17:13 | 28.68617 | -81.05590 | 2697 ft | 214 kts | 173° |
| 2026-04-26 17:13 | 28.67197 | -81.05870 | 2483 ft | 206 kts | 207° |
| 2026-04-26 17:13 | 28.65302 | -81.08169 | 2482 ft | 209 kts | 244° |
| 2026-04-26 17:14 | 28.64539 | -81.09581 | 2455 ft | 209 kts | 235° |
| 2026-04-26 17:14 | 28.62722 | -81.12170 | 2474 ft | 209 kts | 232° |
| 2026-04-26 17:14 | 28.61731 | -81.13372 | 2456 ft | 209 kts | 218° |
| 2026-04-26 17:15 | 28.60206 | -81.16053 | 2368 ft | 213 kts | 261° |
| 2026-04-26 17:15 | 28.59946 | -81.17727 | 2108 ft | 216 kts | 259° |
| 2026-04-26 17:15 | 28.59596 | -81.19374 | 1817 ft | 209 kts | 255° |
| 2026-04-26 17:16 | 28.59181 | -81.20933 | 1549 ft | 205 kts | 254° |
| 2026-04-26 17:16 | 28.58686 | -81.22431 | 1385 ft | 200 kts | 247° |
| 2026-04-26 17:16 | 28.58164 | -81.23766 | 1326 ft | 178 kts | 247° |
| 2026-04-26 17:16 | 28.57670 | -81.25054 | 1233 ft | 174 kts | 248° |
| 2026-04-26 17:17 | 28.57230 | -81.26218 | 1140 ft | 149 kts | 248° |
| 2026-04-26 17:17 | 28.56850 | -81.27220 | 1034 ft | 131 kts | 248° |
| 2026-04-26 17:17 | 28.56505 | -81.28126 | 874 ft | 113 kts | 248° |
| 2026-04-26 17:17 | 28.56223 | -81.28881 | 749 ft | 98 kts | 250° |
| 2026-04-26 17:18 | 28.55958 | -81.29577 | 615 ft | 94 kts | 248° |
| 2026-04-26 17:18 | 28.55689 | -81.30236 | 553 ft | 86 kts | 250° |
| 2026-04-26 17:18 | 28.55448 | -81.30858 | 357 ft | 88 kts | 247° |
| 2026-04-26 17:18 | 28.55202 | -81.31502 | 308 ft | 89 kts | 250° |
| 2026-04-26 17:19 | 28.54732 | -81.32750 | 114 ft | 71 kts | 248° |
| 2026-04-26 17:19 | 28.54592 | -81.33119 | 115 ft | 25 kts | 246° |
| 2026-04-26 17:19 | 28.54523 | -81.33296 | 113 ft | 31 kts | 246° |
| 2026-04-26 17:20 | 28.54496 | -81.33369 | 114 ft | 0 kts | 312° |
| 2026-04-26 17:20 | 28.54497 | -81.33428 | 113 ft | 26 kts | 270° |
| 2026-04-26 17:20 | 28.54636 | -81.33666 | 112 ft | 29 kts | 310° |
| 2026-04-26 17:20 | 28.54717 | -81.33773 | 111 ft | 18 kts | 307° |
| 2026-04-26 17:21 | 28.54755 | -81.33812 | 112 ft | 2 kts | 359° |
| 2026-04-26 17:21 | 28.54810 | -81.33801 | 113 ft | 4 kts | 77° |
| 2026-04-26 17:21 | 28.54805 | -81.33801 | 113 ft | 0 kts | 228° |